Time;durP1;ratioP1;P1;durP2;ratioP2;P2;SDS_P1;SDS_P2;PMS_P1;PMS_P2;Temp;Humidity;BMP_temperature;BMP_pressure;BME280_temperature;BME280_humidity;BME280_pressure;Samples;Min_cycle;Max_cycle;Signal;HPM_P1;HPM_P2
2022/03/24 00:00:47;;;;;;;;;;;;;;;;;;2097345;28;19924;-47
2022/03/24 00:01:48;;;;;;;;;;;;;;;;;;2097325;28;20019;-47
2022/03/24 00:02:49;;;;;;;;;;;;;;;;;;2097091;28;19925;-48
2022/03/24 00:03:51;;;;;;;;;;;;;;;;;;2096289;28;20015;-47
2022/03/24 00:04:52;;;;;;;;;;;;;;;;;;2094275;28;20297;-47
2022/03/24 00:05:53;;;;;;;;;;;;;;;;;;2089204;28;19925;-49
2022/03/24 00:06:54;;;;;;;;;;;;;;;;;;2091524;28;20600;-48
2022/03/24 00:07:55;;;;;;;;;;;;;;;;;;2092426;28;19924;-48
2022/03/24 00:08:56;;;;;;;;;;;;;;;;;;2097461;28;19958;-48
2022/03/24 00:09:57;;;;;;;;;;;;;;;;;;2096413;28;20294;-47
2022/03/24 00:10:59;;;;;;;;;;;;;;;;;;2098109;28;19924;-48
2022/03/24 00:12:00;;;;;;;;;;;;;;;;;;2095238;28;19925;-48
2022/03/24 00:13:01;;;;;;;;;;;;;;;;;;2098965;28;19928;-47
2022/03/24 00:14:02;;;;;;;;;;;;;;;;;;2097633;28;19925;-47
2022/03/24 00:15:03;;;;;;;;;;;;;;;;;;2095292;28;19954;-44
2022/03/24 00:16:04;;;;;;;;;;;;;;;;;;2098107;28;19924;-45
2022/03/24 00:17:06;;;;;;;;;;;;;;;;;;2098759;28;20011;-47
2022/03/24 00:18:07;;;;;;;;;;;;;;;;;;2098840;28;20401;-47
2022/03/24 00:19:08;;;;;;;;;;;;;;;;;;2092368;28;19925;-48
2022/03/24 00:20:11;;;;;;;;;;;;;;;;;;2090602;28;19925;-48
2022/03/24 00:21:11;;;;;;;;;;;;;;;;;;2095018;28;20386;-45
2022/03/24 00:22:13;;;;;;;;;;;;;;;;;;2093250;28;19925;-44
2022/03/24 00:23:14;;;;;;;;;;;;;;;;;;2092855;28;19961;-44
2022/03/24 00:24:15;;;;;;;;;;;;;;;;;;2091791;28;19924;-44
2022/03/24 00:25:16;;;;;;;;;;;;;;;;;;2096029;28;20328;-45
2022/03/24 00:26:17;;;;;;;;;;;;;;;;;;2098957;28;19924;-44
2022/03/24 00:27:18;;;;;;;;;;;;;;;;;;2098676;28;20440;-46
2022/03/24 00:28:19;;;;;;;;;;;;;;;;;;2098293;28;19931;-47
2022/03/24 00:29:20;;;;;;;;;;;;;;;;;;2099003;28;19925;-48
2022/03/24 00:30:21;;;;;;;;;;;;;;;;;;2097343;28;19974;-44
2022/03/24 00:31:22;;;;;;;;;;;;;;;;;;2098731;28;19978;-46
2022/03/24 00:32:24;;;;;;;;;;;;;;;;;;2098440;28;19974;-47
2022/03/24 00:33:25;;;;;;;;;;;;;;;;;;2098346;28;20384;-47
2022/03/24 00:34:26;;;;;;;;;;;;;;;;;;2098349;28;19925;-47
2022/03/24 00:35:27;;;;;;;;;;;;;;;;;;2094926;28;20317;-47
2022/03/24 00:36:28;;;;;;;;;;;;;;;;;;2096877;28;19925;-48
2022/03/24 00:37:31;;;;;;;;;;;;;;;;;;2093526;28;19925;-48
2022/03/24 00:38:31;;;;;;;;;;;;;;;;;;2096927;28;20404;-48
2022/03/24 00:39:34;;;;;;;;;;;;;;;;;;2093465;28;19925;-47
2022/03/24 00:40:35;;;;;;;;;;;;;;;;;;2090660;28;19929;-47
2022/03/24 00:41:36;;;;;;;;;;;;;;;;;;2097383;28;19987;-47
2022/03/24 00:42:37;;;;;;;;;;;;;;;;;;2091699;28;20333;-48
2022/03/24 00:43:40;;;;;;;;;;;;;;;;;;2090499;28;19963;-48
2022/03/24 00:44:42;;;;;;;;;;;;;;;;;;2090563;28;20020;-48
2022/03/24 00:45:43;;;;;;;;;;;;;;;;;;2093273;28;19955;-47
2022/03/24 00:46:44;;;;;;;;;;;;;;;;;;2097316;28;19924;-48
2022/03/24 00:47:45;;;;;;;;;;;;;;;;;;2098548;28;19924;-47
2022/03/24 00:48:46;;;;;;;;;;;;;;;;;;2098094;28;19939;-47
2022/03/24 00:49:47;;;;;;;;;;;;;;;;;;2098735;28;19924;-47
2022/03/24 00:50:49;;;;;;;;;;;;;;;;;;2093190;28;20374;-47
2022/03/24 00:51:50;;;;;;;;;;;;;;;;;;2096613;28;19925;-44
2022/03/24 00:52:51;;;;;;;;;;;;;;;;;;2097118;28;20044;-44
2022/03/24 00:53:52;;;;;;;;;;;;;;;;;;2094869;28;19932;-44
2022/03/24 00:54:53;;;;;;;;;;;;;;;;;;2090448;28;19925;-44
2022/03/24 00:55:56;;;;;;;;;;;;;;;;;;2097953;28;19924;-45
2022/03/24 00:56:57;;;;;;;;;;;;;;;;;;2098333;28;19925;-45
2022/03/24 00:57:58;;;;;;;;;;;;;;;;;;2097015;28;19966;-44
2022/03/24 00:58:59;;;;;;;;;;;;;;;;;;2090674;28;20357;-45
2022/03/24 01:00:00;;;;;;;;;;;;;;;;;;2090832;28;19948;-44
2022/03/24 01:01:02;;;;;;;;;;;;;;;;;;2097355;28;19929;-44
2022/03/24 01:02:03;;;;;;;;;;;;;;;;;;2090508;28;19925;-44
2022/03/24 01:03:06;;;;;;;;;;;;;;;;;;2090291;28;20010;-44
2022/03/24 01:04:07;;;;;;;;;;;;;;;;;;2090640;28;19939;-47
2022/03/24 01:05:09;;;;;;;;;;;;;;;;;;2090576;28;19959;-47
2022/03/24 01:06:09;;;;;;;;;;;;;;;;;;2095099;28;20393;-47
2022/03/24 01:07:11;;;;;;;;;;;;;;;;;;2098516;28;19925;-47
2022/03/24 01:08:13;;;;;;;;;;;;;;;;;;2097467;28;19976;-49
2022/03/24 01:09:14;;;;;;;;;;;;;;;;;;2098316;28;19925;-47
2022/03/24 01:10:15;;;;;;;;;;;;;;;;;;2098729;28;19932;-47
2022/03/24 01:11:17;;;;;;;;;;;;;;;;;;2096865;28;19928;-48
2022/03/24 01:12:18;;;;;;;;;;;;;;;;;;2097646;28;19932;-48
2022/03/24 01:13:21;;;;;;;;;;;;;;;;;;2098185;28;19931;-47
2022/03/24 01:14:23;;;;;;;;;;;;;;;;;;2098480;28;19924;-47
2022/03/24 01:15:23;;;;;;;;;;;;;;;;;;2098471;28;19958;-47
2022/03/24 01:16:25;;;;;;;;;;;;;;;;;;2091919;28;19966;-47
2022/03/24 01:17:26;;;;;;;;;;;;;;;;;;2090263;28;20015;-47
2022/03/24 01:18:29;;;;;;;;;;;;;;;;;;2097453;28;20030;-48
2022/03/24 01:19:29;;;;;;;;;;;;;;;;;;2091171;28;20373;-47
2022/03/24 01:20:31;;;;;;;;;;;;;;;;;;2090631;28;19936;-48
2022/03/24 01:21:33;;;;;;;;;;;;;;;;;;2095506;28;19925;-47
2022/03/24 01:22:34;;;;;;;;;;;;;;;;;;2096932;28;19925;-47
2022/03/24 01:23:35;;;;;;;;;;;;;;;;;;2096318;28;19925;-47
2022/03/24 01:24:38;;;;;;;;;;;;;;;;;;2098290;28;19929;-50
2022/03/24 01:25:41;;;;;;;;;;;;;;;;;;2090466;28;20271;-44
2022/03/24 01:26:43;;;;;;;;;;;;;;;;;;2090624;28;20305;-44
2022/03/24 01:27:44;;;;;;;;;;;;;;;;;;2090396;28;19932;-44
2022/03/24 01:28:45;;;;;;;;;;;;;;;;;;2094754;28;20042;-44
2022/03/24 01:29:46;;;;;;;;;;;;;;;;;;2098035;28;20015;-45
2022/03/24 01:30:48;;;;;;;;;;;;;;;;;;2097333;28;19978;-45
2022/03/24 01:31:48;;;;;;;;;;;;;;;;;;2096071;28;19925;-44
2022/03/24 01:32:50;;;;;;;;;;;;;;;;;;2096233;28;19963;-44
2022/03/24 01:33:51;;;;;;;;;;;;;;;;;;2096678;28;19933;-44
2022/03/24 01:34:52;;;;;;;;;;;;;;;;;;2098179;28;19929;-44
2022/03/24 01:35:53;;;;;;;;;;;;;;;;;;2094969;28;19925;-44
2022/03/24 01:36:54;;;;;;;;;;;;;;;;;;2096883;28;19931;-44
2022/03/24 01:37:55;;;;;;;;;;;;;;;;;;2093555;28;19930;-44
2022/03/24 01:38:57;;;;;;;;;;;;;;;;;;2098021;28;19932;-44
2022/03/24 01:39:57;;;;;;;;;;;;;;;;;;2097610;28;20305;-44
2022/03/24 01:40:59;;;;;;;;;;;;;;;;;;2097981;28;19924;-45
2022/03/24 01:42:00;;;;;;;;;;;;;;;;;;2098192;28;19924;-44
2022/03/24 01:43:01;;;;;;;;;;;;;;;;;;2096475;28;19933;-44
2022/03/24 01:44:02;;;;;;;;;;;;;;;;;;2097080;28;19924;-44
2022/03/24 01:45:03;;;;;;;;;;;;;;;;;;2098246;28;20285;-45
2022/03/24 01:46:05;;;;;;;;;;;;;;;;;;2098511;28;19924;-47
2022/03/24 01:47:06;;;;;;;;;;;;;;;;;;2098051;28;20267;-47
2022/03/24 01:48:08;;;;;;;;;;;;;;;;;;2093023;28;19935;-47
2022/03/24 01:49:10;;;;;;;;;;;;;;;;;;2090464;28;19925;-47
2022/03/24 01:50:11;;;;;;;;;;;;;;;;;;2092939;28;20301;-48
2022/03/24 01:51:12;;;;;;;;;;;;;;;;;;2090466;28;19928;-48
2022/03/24 01:52:13;;;;;;;;;;;;;;;;;;2090091;28;19925;-50
2022/03/24 01:53:14;;;;;;;;;;;;;;;;;;2096082;28;20447;-47
2022/03/24 01:54:16;;;;;;;;;;;;;;;;;;2097616;28;19967;-47
2022/03/24 01:55:17;;;;;;;;;;;;;;;;;;2097925;28;20288;-45
2022/03/24 01:56:18;;;;;;;;;;;;;;;;;;2098051;28;19948;-44
2022/03/24 01:57:20;;;;;;;;;;;;;;;;;;2097643;28;19929;-44
2022/03/24 01:58:21;;;;;;;;;;;;;;;;;;2098578;28;19978;-44
2022/03/24 01:59:22;;;;;;;;;;;;;;;;;;2098201;28;20304;-44
2022/03/24 02:00:23;;;;;;;;;;;;;;;;;;2093388;28;19924;-44
2022/03/24 02:01:25;;;;;;;;;;;;;;;;;;2097955;28;20408;-45
2022/03/24 02:02:27;;;;;;;;;;;;;;;;;;2091490;28;20267;-44
2022/03/24 02:03:28;;;;;;;;;;;;;;;;;;2094027;28;19960;-44
2022/03/24 02:04:30;;;;;;;;;;;;;;;;;;2090050;28;19932;-44
2022/03/24 02:05:31;;;;;;;;;;;;;;;;;;2092050;28;19925;-45
2022/03/24 02:06:32;;;;;;;;;;;;;;;;;;2095480;28;20033;-44
2022/03/24 02:07:34;;;;;;;;;;;;;;;;;;2096796;28;20366;-44
2022/03/24 02:08:35;;;;;;;;;;;;;;;;;;2097120;28;19924;-44
2022/03/24 02:09:36;;;;;;;;;;;;;;;;;;2098004;28;20321;-44
2022/03/24 02:10:37;;;;;;;;;;;;;;;;;;2092505;28;19939;-44
2022/03/24 02:11:38;;;;;;;;;;;;;;;;;;2094078;28;20023;-44
2022/03/24 02:12:39;;;;;;;;;;;;;;;;;;2090205;28;20393;-44
2022/03/24 02:13:40;;;;;;;;;;;;;;;;;;2092863;28;19998;-44
2022/03/24 02:14:41;;;;;;;;;;;;;;;;;;2097795;28;19928;-45
2022/03/24 02:15:43;;;;;;;;;;;;;;;;;;2097865;28;19924;-44
2022/03/24 02:16:44;;;;;;;;;;;;;;;;;;2098173;28;19925;-47
2022/03/24 02:17:48;;;;;;;;;;;;;;;;;;2091987;28;20390;-48
2022/03/24 02:18:50;;;;;;;;;;;;;;;;;;2089906;28;19999;-47
2022/03/24 02:19:51;;;;;;;;;;;;;;;;;;2094664;28;19972;-47
2022/03/24 02:20:52;;;;;;;;;;;;;;;;;;2098071;28;19928;-47
2022/03/24 02:21:53;;;;;;;;;;;;;;;;;;2096512;28;19947;-47
2022/03/24 02:22:54;;;;;;;;;;;;;;;;;;2096229;28;19925;-46
2022/03/24 02:23:55;;;;;;;;;;;;;;;;;;2091926;28;19925;-47
2022/03/24 02:24:56;;;;;;;;;;;;;;;;;;2097599;28;19924;-47
2022/03/24 02:25:57;;;;;;;;;;;;;;;;;;2097757;28;19970;-47
2022/03/24 02:26:59;;;;;;;;;;;;;;;;;;2097890;28;20011;-47
2022/03/24 02:28:01;;;;;;;;;;;;;;;;;;2096486;28;20010;-47
2022/03/24 02:29:06;;;;;;;;;;;;;;;;;;2089858;28;20370;-46
2022/03/24 02:30:07;;;;;;;;;;;;;;;;;;2090185;28;19925;-47
2022/03/24 02:31:09;;;;;;;;;;;;;;;;;;2096695;28;20382;-46
2022/03/24 02:32:11;;;;;;;;;;;;;;;;;;2097239;28;19956;-46
2022/03/24 02:33:12;;;;;;;;;;;;;;;;;;2095375;28;19929;-47
2022/03/24 02:35:33;;;;;;;;;;;;;;;;;;2091664;28;19925;-47
2022/03/24 02:36:34;;;;;;;;;;;;;;;;;;2092027;28;19925;-47
2022/03/24 02:37:35;;;;;;;;;;;;;;;;;;2096630;28;19931;-46
2022/03/24 02:38:36;;;;;;;;;;;;;;;;;;2098163;28;19940;-47
2022/03/24 02:39:38;;;;;;;;;;;;;;;;;;2091508;28;19931;-44
2022/03/24 02:40:39;;;;;;;;;;;;;;;;;;2092010;28;19924;-47
2022/03/24 02:41:40;;;;;;;;;;;;;;;;;;2096554;28;19924;-46
2022/03/24 02:42:41;;;;;;;;;;;;;;;;;;2090107;28;19967;-46
2022/03/24 02:43:42;;;;;;;;;;;;;;;;;;2097193;28;19924;-47
2022/03/24 02:44:43;;;;;;;;;;;;;;;;;;2097921;28;19924;-47
2022/03/24 02:45:45;;;;;;;;;;;;;;;;;;2092909;28;19978;-47
2022/03/24 02:46:47;;;;;;;;;;;;;;;;;;2091109;28;19932;-47
2022/03/24 02:47:49;;;;;;;;;;;;;;;;;;2098274;28;20022;-46
2022/03/24 02:48:50;;;;;;;;;;;;;;;;;;2097887;28;19966;-46
2022/03/24 02:49:51;;;;;;;;;;;;;;;;;;2097968;28;19929;-46
2022/03/24 02:50:53;;;;;;;;;;;;;;;;;;2098076;28;19931;-47
2022/03/24 02:51:54;;;;;;;;;;;;;;;;;;2097375;28;19983;-46
2022/03/24 02:52:56;;;;;;;;;;;;;;;;;;2097546;28;20010;-47
2022/03/24 02:53:56;;;;;;;;;;;;;;;;;;2097704;28;19925;-49
2022/03/24 02:54:58;;;;;;;;;;;;;;;;;;2097875;28;19924;-46
2022/03/24 02:55:58;;;;;;;;;;;;;;;;;;2098071;28;19929;-47
2022/03/24 02:57:00;;;;;;;;;;;;;;;;;;2097707;28;19930;-47
2022/03/24 02:58:01;;;;;;;;;;;;;;;;;;2098047;28;19931;-47
2022/03/24 02:59:02;;;;;;;;;;;;;;;;;;2098047;28;19936;-47
2022/03/24 03:00:03;;;;;;;;;;;;;;;;;;2098103;28;19924;-46
2022/03/24 03:01:04;;;;;;;;;;;;;;;;;;2097659;28;20377;-47
2022/03/24 03:02:06;;;;;;;;;;;;;;;;;;2097828;28;19931;-47
2022/03/24 03:03:07;;;;;;;;;;;;;;;;;;2097966;28;19924;-47
2022/03/24 03:04:08;;;;;;;;;;;;;;;;;;2097782;28;19925;-48
2022/03/24 03:05:09;;;;;;;;;;;;;;;;;;2089665;28;19925;-48
2022/03/24 03:06:11;;;;;;;;;;;;;;;;;;2097076;28;19925;-47
2022/03/24 03:07:13;;;;;;;;;;;;;;;;;;2097987;28;20341;-47
2022/03/24 03:08:15;;;;;;;;;;;;;;;;;;2097680;28;19947;-47
2022/03/24 03:09:16;;;;;;;;;;;;;;;;;;2098064;28;20049;-47
2022/03/24 03:10:18;;;;;;;;;;;;;;;;;;2097628;28;19928;-46
2022/03/24 03:11:20;;;;;;;;;;;;;;;;;;2098045;28;19929;-44
2022/03/24 03:12:22;;;;;;;;;;;;;;;;;;2097382;28;20063;-44
2022/03/24 03:13:23;;;;;;;;;;;;;;;;;;2098042;28;19924;-44
2022/03/24 03:14:24;;;;;;;;;;;;;;;;;;2098066;28;20263;-44
2022/03/24 03:15:25;;;;;;;;;;;;;;;;;;2097579;28;19924;-43
2022/03/24 03:16:26;;;;;;;;;;;;;;;;;;2097838;28;19925;-44
2022/03/24 03:17:28;;;;;;;;;;;;;;;;;;2097562;28;19939;-44
2022/03/24 03:18:32;;;;;;;;;;;;;;;;;;2097020;28;19925;-44
2022/03/24 03:19:34;;;;;;;;;;;;;;;;;;2095972;28;19932;-44
2022/03/24 03:20:36;;;;;;;;;;;;;;;;;;2097406;28;19924;-48
2022/03/24 03:21:37;;;;;;;;;;;;;;;;;;2097531;28;19947;-45
2022/03/24 03:22:38;;;;;;;;;;;;;;;;;;2097422;28;19924;-44
2022/03/24 03:23:40;;;;;;;;;;;;;;;;;;2098064;28;19924;-48
2022/03/24 03:24:41;;;;;;;;;;;;;;;;;;2098215;28;19950;-48
2022/03/24 03:25:42;;;;;;;;;;;;;;;;;;2097545;28;20019;-48
2022/03/24 03:26:44;;;;;;;;;;;;;;;;;;2098351;28;20003;-49
2022/03/24 03:27:45;;;;;;;;;;;;;;;;;;2106179;28;19928;-48
2022/03/24 03:28:47;;;;;;;;;;;;;;;;;;2106167;28;19971;-50
2022/03/24 03:29:48;;;;;;;;;;;;;;;;;;2106291;28;19931;-47
2022/03/24 03:30:50;;;;;;;;;;;;;;;;;;2101241;28;19925;-51
2022/03/24 03:31:52;;;;;;;;;;;;;;;;;;2097411;28;19924;-44
2022/03/24 03:32:53;;;;;;;;;;;;;;;;;;2097180;28;20435;-44
2022/03/24 03:33:54;;;;;;;;;;;;;;;;;;2097753;28;19929;-45
2022/03/24 03:34:58;;;;;;;;;;;;;;;;;;2097599;28;19932;-47
2022/03/24 03:35:59;;;;;;;;;;;;;;;;;;2097424;28;19932;-47
2022/03/24 03:37:01;;;;;;;;;;;;;;;;;;2097185;28;19931;-45
2022/03/24 03:38:01;;;;;;;;;;;;;;;;;;2097557;28;19970;-44
2022/03/24 03:39:03;;;;;;;;;;;;;;;;;;2097643;28;19997;-44
2022/03/24 03:40:04;;;;;;;;;;;;;;;;;;2097334;28;19924;-45
2022/03/24 03:41:05;;;;;;;;;;;;;;;;;;2097500;28;19925;-45
2022/03/24 03:42:07;;;;;;;;;;;;;;;;;;2097858;28;19971;-47
2022/03/24 03:43:10;;;;;;;;;;;;;;;;;;2097805;28;20393;-47
2022/03/24 03:44:12;;;;;;;;;;;;;;;;;;2097870;28;20429;-48
2022/03/24 03:45:12;;;;;;;;;;;;;;;;;;2097073;28;19957;-47
2022/03/24 03:46:14;;;;;;;;;;;;;;;;;;2097410;28;19982;-47
2022/03/24 03:47:15;;;;;;;;;;;;;;;;;;2097503;28;19925;-48
2022/03/24 03:48:16;;;;;;;;;;;;;;;;;;2097419;28;20210;-47
2022/03/24 03:49:18;;;;;;;;;;;;;;;;;;2097968;28;19974;-48
2022/03/24 03:50:19;;;;;;;;;;;;;;;;;;2097275;28;19929;-47
2022/03/24 03:51:21;;;;;;;;;;;;;;;;;;2097694;28;20051;-47
2022/03/24 03:52:22;;;;;;;;;;;;;;;;;;2097409;28;19924;-48
2022/03/24 03:53:23;;;;;;;;;;;;;;;;;;2097504;28;19931;-47
2022/03/24 03:54:26;;;;;;;;;;;;;;;;;;2097309;28;20381;-48
2022/03/24 03:55:27;;;;;;;;;;;;;;;;;;2097870;28;19924;-45
2022/03/24 03:56:28;;;;;;;;;;;;;;;;;;2097431;28;19925;-44
2022/03/24 03:57:30;;;;;;;;;;;;;;;;;;2097426;28;19924;-47
2022/03/24 03:58:31;;;;;;;;;;;;;;;;;;2097723;28;19928;-47
2022/03/24 03:59:32;;;;;;;;;;;;;;;;;;2097801;28;19929;-48
2022/03/24 04:01:55;;;;;;;;;;;;;;;;;;2097338;28;20361;-48
2022/03/24 04:02:57;;;;;;;;;;;;;;;;;;2097641;28;19924;-47
2022/03/24 04:03:59;;;;;;;;;;;;;;;;;;2097823;28;19924;-44
2022/03/24 04:05:00;;;;;;;;;;;;;;;;;;2097786;28;19925;-44
2022/03/24 04:06:01;;;;;;;;;;;;;;;;;;2097346;28;20274;-44
2022/03/24 04:07:20;;;;;;;;;;;;;;;;;;2097966;28;19999;-44
2022/03/24 04:08:21;;;;;;;;;;;;;;;;;;2097279;28;19940;-44
2022/03/24 04:09:23;;;;;;;;;;;;;;;;;;2097473;28;19931;-44
2022/03/24 04:10:26;;;;;;;;;;;;;;;;;;2097850;28;19925;-49
2022/03/24 04:11:27;;;;;;;;;;;;;;;;;;2097300;28;19925;-48
2022/03/24 04:12:28;;;;;;;;;;;;;;;;;;2097194;28;19931;-48
2022/03/24 04:13:29;;;;;;;;;;;;;;;;;;2097580;28;19931;-46
2022/03/24 04:14:30;;;;;;;;;;;;;;;;;;2097626;28;19931;-47
2022/03/24 04:15:32;;;;;;;;;;;;;;;;;;2097539;28;20436;-47
2022/03/24 04:16:34;;;;;;;;;;;;;;;;;;2097840;28;19963;-47
2022/03/24 04:17:35;;;;;;;;;;;;;;;;;;2097630;28;19928;-48
2022/03/24 04:18:36;;;;;;;;;;;;;;;;;;2097092;28;20011;-48
2022/03/24 04:19:37;;;;;;;;;;;;;;;;;;2097527;28;19924;-48
2022/03/24 04:20:39;;;;;;;;;;;;;;;;;;2097680;28;19955;-44
2022/03/24 04:21:40;;;;;;;;;;;;;;;;;;2097347;28;19925;-44
2022/03/24 04:22:41;;;;;;;;;;;;;;;;;;2097096;28;19928;-44
2022/03/24 04:23:42;;;;;;;;;;;;;;;;;;2097331;28;19970;-44
2022/03/24 04:24:43;;;;;;;;;;;;;;;;;;2097611;28;20320;-48
2022/03/24 04:25:45;;;;;;;;;;;;;;;;;;2097327;28;19928;-49
2022/03/24 04:26:46;;;;;;;;;;;;;;;;;;2097608;28;19974;-48
2022/03/24 04:27:47;;;;;;;;;;;;;;;;;;2097221;28;19931;-47
2022/03/24 04:28:49;;;;;;;;;;;;;;;;;;2097210;28;19931;-47
2022/03/24 04:29:49;;;;;;;;;;;;;;;;;;2096617;28;19924;-47
2022/03/24 04:30:51;;;;;;;;;;;;;;;;;;2097375;28;19925;-47
2022/03/24 04:31:52;;;;;;;;;;;;;;;;;;2091438;28;19928;-47
2022/03/24 04:32:53;;;;;;;;;;;;;;;;;;2094286;28;20357;-47
2022/03/24 04:33:55;;;;;;;;;;;;;;;;;;2096855;28;19986;-47
2022/03/24 04:34:55;;;;;;;;;;;;;;;;;;2097081;28;19950;-49
2022/03/24 04:35:58;;;;;;;;;;;;;;;;;;2096916;28;19969;-48
2022/03/24 04:36:59;;;;;;;;;;;;;;;;;;2092247;28;19924;-44
2022/03/24 04:38:00;;;;;;;;;;;;;;;;;;2097355;28;20286;-45
2022/03/24 04:39:02;;;;;;;;;;;;;;;;;;2097571;28;19924;-44
2022/03/24 04:40:03;;;;;;;;;;;;;;;;;;2096932;28;19932;-44
2022/03/24 04:41:05;;;;;;;;;;;;;;;;;;2097993;28;20035;-45
2022/03/24 04:42:06;;;;;;;;;;;;;;;;;;2097298;28;19925;-44
2022/03/24 04:43:08;;;;;;;;;;;;;;;;;;2095277;28;19932;-45
2022/03/24 04:44:09;;;;;;;;;;;;;;;;;;2097483;28;19954;-45
2022/03/24 04:45:10;;;;;;;;;;;;;;;;;;2097481;28;20333;-46
2022/03/24 04:46:11;;;;;;;;;;;;;;;;;;2097380;28;20429;-47
2022/03/24 04:47:13;;;;;;;;;;;;;;;;;;2097636;28;19929;-47
2022/03/24 04:48:15;;;;;;;;;;;;;;;;;;2097937;28;19924;-44
2022/03/24 04:49:15;;;;;;;;;;;;;;;;;;2097202;28;20304;-45
2022/03/24 04:50:17;;;;;;;;;;;;;;;;;;2093112;28;19920;-45
2022/03/24 04:51:19;;;;;;;;;;;;;;;;;;2089235;28;20435;-45
2022/03/24 04:52:19;;;;;;;;;;;;;;;;;;2096355;28;19935;-44
2022/03/24 04:53:21;;;;;;;;;;;;;;;;;;2097322;28;20317;-44
2022/03/24 04:54:22;;;;;;;;;;;;;;;;;;2097312;28;20438;-44
2022/03/24 04:55:23;;;;;;;;;;;;;;;;;;2097626;28;19951;-47
2022/03/24 04:56:24;;;;;;;;;;;;;;;;;;2096867;28;19932;-47
2022/03/24 04:57:25;;;;;;;;;;;;;;;;;;2097429;28;19937;-47
2022/03/24 04:58:27;;;;;;;;;;;;;;;;;;2098494;28;20455;-47
2022/03/24 04:59:28;;;;;;;;;;;;;;;;;;2098450;28;20217;-47
2022/03/24 05:00:30;;;;;;;;;;;;;;;;;;2098769;28;20026;-48
2022/03/24 05:01:49;;;;;;;;;;;;;;;;;;2098823;28;19924;-49
2022/03/24 05:02:50;;;;;;;;;;;;;;;;;;2098784;28;19931;-48
2022/03/24 05:03:51;;;;;;;;;;;;;;;;;;2098717;28;20423;-47
2022/03/24 05:04:53;;;;;;;;;;;;;;;;;;2098736;28;19928;-47
2022/03/24 05:05:54;;;;;;;;;;;;;;;;;;2098632;28;19924;-48
2022/03/24 05:06:55;;;;;;;;;;;;;;;;;;2098540;28;19971;-51
2022/03/24 05:07:56;;;;;;;;;;;;;;;;;;2098082;28;19983;-47
2022/03/24 05:08:57;;;;;;;;;;;;;;;;;;2115211;22;19924;-48
2022/03/24 05:09:59;;;;;;;;;;;;;;;;;;2107057;28;20029;-45
2022/03/24 05:10:59;;;;;;;;;;;;;;;;;;2107183;28;19924;-44
2022/03/24 05:12:01;;;;;;;;;;;;;;;;;;2104095;28;20304;-44
2022/03/24 05:13:02;;;;;;;;;;;;;;;;;;2098530;28;19925;-43
2022/03/24 05:14:03;;;;;;;;;;;;;;;;;;2098838;28;19931;-44
2022/03/24 05:15:05;;;;;;;;;;;;;;;;;;2098800;28;20381;-44
2022/03/24 05:16:06;;;;;;;;;;;;;;;;;;2098676;28;19924;-44
2022/03/24 05:17:07;;;;;;;;;;;;;;;;;;2099018;28;20305;-48
2022/03/24 05:18:08;;;;;;;;;;;;;;;;;;2098700;28;20350;-44
2022/03/24 05:19:09;;;;;;;;;;;;;;;;;;2098909;28;19924;-48
2022/03/24 05:20:10;;;;;;;;;;;;;;;;;;2098824;28;19983;-48
2022/03/24 05:21:12;;;;;;;;;;;;;;;;;;2098840;28;20378;-48
2022/03/24 05:22:14;;;;;;;;;;;;;;;;;;2099674;28;19924;-47
2022/03/24 05:23:15;;;;;;;;;;;;;;;;;;2098854;28;20030;-47
2022/03/24 05:24:16;;;;;;;;;;;;;;;;;;2105549;28;19932;-48
2022/03/24 05:25:17;;;;;;;;;;;;;;;;;;2101643;28;19936;-47
2022/03/24 05:26:20;;;;;;;;;;;;;;;;;;2099799;28;19949;-47
2022/03/24 05:27:22;;;;;;;;;;;;;;;;;;2103103;28;19931;-47
2022/03/24 05:28:24;;;;;;;;;;;;;;;;;;2099402;28;19931;-44
2022/03/24 05:29:25;;;;;;;;;;;;;;;;;;2107152;28;20405;-45
2022/03/24 05:30:27;;;;;;;;;;;;;;;;;;2102220;28;19931;-49
2022/03/24 05:31:28;;;;;;;;;;;;;;;;;;2100215;28;19960;-44
2022/03/24 05:32:29;;;;;;;;;;;;;;;;;;2104156;28;19940;-45
2022/03/24 05:33:30;;;;;;;;;;;;;;;;;;2098632;28;19925;-44
2022/03/24 05:34:32;;;;;;;;;;;;;;;;;;2098850;28;20006;-44
2022/03/24 05:35:35;;;;;;;;;;;;;;;;;;2098513;28;19950;-45
2022/03/24 05:36:36;;;;;;;;;;;;;;;;;;2098479;28;20174;-43
2022/03/24 05:37:37;;;;;;;;;;;;;;;;;;2098819;28;19928;-47
2022/03/24 05:38:38;;;;;;;;;;;;;;;;;;2098442;28;20267;-47
2022/03/24 05:39:40;;;;;;;;;;;;;;;;;;2098718;28;19924;-44
2022/03/24 05:40:41;;;;;;;;;;;;;;;;;;2098789;28;19950;-43
2022/03/24 05:41:42;;;;;;;;;;;;;;;;;;2098790;28;19979;-45
2022/03/24 05:42:43;;;;;;;;;;;;;;;;;;2098579;28;19925;-44
2022/03/24 05:44:02;;;;;;;;;;;;;;;;;;2098445;28;19935;-43
2022/03/24 05:45:03;;;;;;;;;;;;;;;;;;2098792;28;20258;-45
2022/03/24 05:46:04;;;;;;;;;;;;;;;;;;2098559;28;19931;-46
2022/03/24 05:47:06;;;;;;;;;;;;;;;;;;2098419;28;19947;-46
2022/03/24 05:48:07;;;;;;;;;;;;;;;;;;2098923;28;20301;-47
2022/03/24 05:49:08;;;;;;;;;;;;;;;;;;2098636;28;19931;-49
2022/03/24 05:50:10;;;;;;;;;;;;;;;;;;2098872;28;19978;-47
2022/03/24 05:51:10;;;;;;;;;;;;;;;;;;2099452;28;20003;-47
2022/03/24 05:52:12;;;;;;;;;;;;;;;;;;2107157;28;19936;-43
2022/03/24 05:53:13;;;;;;;;;;;;;;;;;;2106901;28;19924;-43
2022/03/24 05:54:14;;;;;;;;;;;;;;;;;;2107365;28;19924;-48
2022/03/24 05:55:15;;;;;;;;;;;;;;;;;;2107243;28;19924;-48
2022/03/24 05:56:16;;;;;;;;;;;;;;;;;;2106529;28;20347;-48
2022/03/24 05:57:17;;;;;;;;;;;;;;;;;;2106918;28;20011;-48
2022/03/24 05:58:20;;;;;;;;;;;;;;;;;;2106845;28;19924;-47
2022/03/24 05:59:21;;;;;;;;;;;;;;;;;;2106907;28;19925;-44
2022/03/24 06:00:23;;;;;;;;;;;;;;;;;;2106837;28;19961;-45
2022/03/24 06:01:24;;;;;;;;;;;;;;;;;;2106911;28;19928;-49
2022/03/24 06:02:26;;;;;;;;;;;;;;;;;;2106203;28;19962;-43
2022/03/24 06:03:27;;;;;;;;;;;;;;;;;;2102881;28;19935;-43
2022/03/24 06:04:30;;;;;;;;;;;;;;;;;;2098512;28;19932;-43
2022/03/24 06:05:31;;;;;;;;;;;;;;;;;;2104490;28;19931;-44
2022/03/24 06:06:32;;;;;;;;;;;;;;;;;;2106650;28;19946;-44
2022/03/24 06:07:34;;;;;;;;;;;;;;;;;;2106726;28;19924;-48
2022/03/24 06:08:35;;;;;;;;;;;;;;;;;;2098354;28;20374;-48
2022/03/24 06:09:36;;;;;;;;;;;;;;;;;;2102423;28;19924;-48
2022/03/24 06:10:37;;;;;;;;;;;;;;;;;;2106385;28;19978;-49
2022/03/24 06:11:38;;;;;;;;;;;;;;;;;;2106785;28;20362;-48
2022/03/24 06:12:39;;;;;;;;;;;;;;;;;;2106617;28;20332;-47
2022/03/24 06:13:41;;;;;;;;;;;;;;;;;;2106202;28;19970;-43
2022/03/24 06:14:42;;;;;;;;;;;;;;;;;;2101846;28;19924;-43
2022/03/24 06:15:43;;;;;;;;;;;;;;;;;;2106614;28;19924;-44
2022/03/24 06:16:44;;;;;;;;;;;;;;;;;;2106580;28;19938;-44
2022/03/24 06:17:45;;;;;;;;;;;;;;;;;;2107452;28;19924;-47
2022/03/24 06:18:46;;;;;;;;;;;;;;;;;;2106552;28;20280;-47
2022/03/24 06:19:47;;;;;;;;;;;;;;;;;;2101523;28;19975;-48
2022/03/24 06:20:49;;;;;;;;;;;;;;;;;;2098475;28;20221;-43
2022/03/24 06:21:50;;;;;;;;;;;;;;;;;;2098367;28;19974;-44
2022/03/24 06:22:51;;;;;;;;;;;;;;;;;;2098394;28;19924;-44
2022/03/24 06:23:53;;;;;;;;;;;;;;;;;;2100890;28;19928;-45
2022/03/24 06:24:54;;;;;;;;;;;;;;;;;;2105782;28;19924;-44
2022/03/24 06:25:56;;;;;;;;;;;;;;;;;;2104014;28;19933;-47
2022/03/24 06:27:01;;;;;;;;;;;;;;;;;;2102719;28;20308;-47
2022/03/24 06:28:02;;;;;;;;;;;;;;;;;;2106362;28;19931;-45
2022/03/24 06:29:03;;;;;;;;;;;;;;;;;;2106740;28;19924;-49
2022/03/24 06:30:05;;;;;;;;;;;;;;;;;;2106478;28;19940;-49
2022/03/24 06:31:07;;;;;;;;;;;;;;;;;;2106598;28;19924;-47
2022/03/24 06:32:08;;;;;;;;;;;;;;;;;;2106219;28;20018;-44
2022/03/24 06:33:09;;;;;;;;;;;;;;;;;;2106543;28;19948;-45
2022/03/24 06:34:10;;;;;;;;;;;;;;;;;;2106574;28;20432;-45
2022/03/24 06:35:11;;;;;;;;;;;;;;;;;;2098469;28;20369;-44
2022/03/24 06:36:13;;;;;;;;;;;;;;;;;;2098086;28;19925;-43
2022/03/24 06:37:14;;;;;;;;;;;;;;;;;;2100333;28;20266;-44
2022/03/24 06:38:15;;;;;;;;;;;;;;;;;;2106271;28;19931;-43
2022/03/24 06:39:17;;;;;;;;;;;;;;;;;;2105118;28;20629;-44
2022/03/24 06:40:18;;;;;;;;;;;;;;;;;;2106066;28;19924;-48
2022/03/24 06:41:19;;;;;;;;;;;;;;;;;;2106416;28;20027;-47
2022/03/24 06:42:21;;;;;;;;;;;;;;;;;;2106658;28;19955;-47
2022/03/24 06:43:24;;;;;;;;;;;;;;;;;;2106573;28;19953;-47
2022/03/24 06:44:26;;;;;;;;;;;;;;;;;;2104469;28;19932;-43
2022/03/24 06:45:28;;;;;;;;;;;;;;;;;;2100819;28;19928;-44
2022/03/24 06:46:29;;;;;;;;;;;;;;;;;;2099591;28;19931;-43
2022/03/24 06:47:31;;;;;;;;;;;;;;;;;;2097881;28;20003;-43
2022/03/24 06:48:31;;;;;;;;;;;;;;;;;;2098976;28;19931;-43
2022/03/24 06:49:33;;;;;;;;;;;;;;;;;;2098144;28;20058;-43
2022/03/24 06:50:34;;;;;;;;;;;;;;;;;;2102821;28;19931;-44
2022/03/24 06:51:35;;;;;;;;;;;;;;;;;;2106501;28;19986;-43
2022/03/24 06:52:36;;;;;;;;;;;;;;;;;;2106441;28;19928;-43
2022/03/24 06:53:37;;;;;;;;;;;;;;;;;;2106219;28;20013;-44
2022/03/24 06:54:39;;;;;;;;;;;;;;;;;;2105857;28;19924;-44
2022/03/24 06:55:40;;;;;;;;;;;;;;;;;;2105631;28;19924;-43
2022/03/24 06:56:41;;;;;;;;;;;;;;;;;;2105336;28;20043;-43
2022/03/24 06:57:42;;;;;;;;;;;;;;;;;;2099036;28;19925;-43
2022/03/24 06:58:43;;;;;;;;;;;;;;;;;;2098688;28;19931;-47
2022/03/24 06:59:45;;;;;;;;;;;;;;;;;;2099710;28;20016;-49
2022/03/24 07:00:46;;;;;;;;;;;;;;;;;;2106779;28;20423;-47
2022/03/24 07:01:49;;;;;;;;;;;;;;;;;;2102405;28;19975;-47
2022/03/24 07:02:50;;;;;;;;;;;;;;;;;;2098211;28;19924;-47